PWSweather.com
Personal Weather Stations
Station Observations

PoschiavoCH

Lat: 46.31962499999999, Lon: 10.066551000000004

Elevation: 3517

Station Type: WH 1080

http://www.meteoposchiavo.com

High Low Average
Temperature 73.0°F22.8°C 36.0°F2.2°C 49.5°F9.7°C
Dew Point 33.8°F1.0°C 21.5°F-5.8°C 27.1°F-2.7°C
Winds 5.8 mph 9.3 kmh Calm Calm 1.0 mph SE1.6 kmh SE
Wind Gusts 8.1 mph13.0 kmh -- 1.0 mph1.6 kmh
Humidity 60% 21% 44%
Pressure 26.91 in911.3 mb 26.72 in904.8 mb -
Precipitation 0.00 in0.0 mm - -
Hour Temp Dew Point Humidity Winds Wind Gusts Pressure Precip Precip Rate Daily Precip Total
12:00 AM 40.0°F4.4°C 25.6°F-3.6°C 56% Calm Calm -- 26.91 in911.3 mb - 0.00 in0.0 mm 0.00 in0.0 mm
12:10 AM 41.0°F5.0°C 23.8°F-4.6°C 50% Calm Calm -- 26.90 in910.9 mb - 0.00 in0.0 mm 0.00 in0.0 mm
12:15 AM 41.0°F5.0°C 22.8°F-5.1°C 48% Calm Calm -- 26.90 in910.9 mb - 0.00 in0.0 mm 0.00 in0.0 mm
12:20 AM 41.0°F5.0°C 23.8°F-4.6°C 50% Calm Calm -- 26.90 in910.9 mb - 0.00 in0.0 mm 0.00 in0.0 mm
12:25 AM 41.0°F5.0°C 24.7°F-4.1°C 52% Calm Calm -- 26.90 in910.9 mb - 0.00 in0.0 mm 0.00 in0.0 mm
12:30 AM 40.0°F4.4°C 24.7°F-4.1°C 54% Calm Calm -- 26.90 in910.9 mb - 0.00 in0.0 mm 0.00 in0.0 mm
12:35 AM 39.0°F3.9°C 23.7°F-4.6°C 54% Calm Calm -- 26.90 in910.9 mb - 0.00 in0.0 mm 0.00 in0.0 mm
12:40 AM 40.0°F4.4°C 25.1°F-3.8°C 55% Calm Calm -- 26.90 in910.9 mb - 0.00 in0.0 mm 0.00 in0.0 mm
12:45 AM 39.0°F3.9°C 22.8°F-5.1°C 52% Calm Calm -- 26.90 in910.9 mb - 0.00 in0.0 mm 0.00 in0.0 mm
12:50 AM 41.0°F5.0°C 23.8°F-4.6°C 50% Calm Calm -- 26.90 in910.9 mb - 0.00 in0.0 mm 0.00 in0.0 mm
12:55 AM 41.0°F5.0°C 24.2°F-4.3°C 51% Calm Calm -- 26.90 in910.9 mb - 0.00 in0.0 mm 0.00 in0.0 mm
01:00 AM 41.0°F5.0°C 24.7°F-4.1°C 52% Calm Calm -- 26.90 in910.9 mb - 0.00 in0.0 mm 0.00 in0.0 mm
01:10 AM 41.0°F5.0°C 24.7°F-4.1°C 52% Calm Calm -- 26.90 in910.9 mb - 0.00 in0.0 mm 0.00 in0.0 mm
01:15 AM 40.0°F4.4°C 24.7°F-4.1°C 54% Calm Calm -- 26.90 in910.9 mb - 0.00 in0.0 mm 0.00 in0.0 mm
01:20 AM 39.0°F3.9°C 23.7°F-4.6°C 54% Calm Calm -- 26.89 in910.6 mb - 0.00 in0.0 mm 0.00 in0.0 mm
01:25 AM 39.0°F3.9°C 24.2°F-4.3°C 55% Calm Calm -- 26.90 in910.9 mb - 0.00 in0.0 mm 0.00 in0.0 mm
01:30 AM 39.0°F3.9°C 24.2°F-4.3°C 55% Calm Calm -- 26.90 in910.9 mb - 0.00 in0.0 mm 0.00 in0.0 mm
01:35 AM 39.0°F3.9°C 24.2°F-4.3°C 55% Calm Calm -- 26.90 in910.9 mb - 0.00 in0.0 mm 0.00 in0.0 mm
01:40 AM 39.0°F3.9°C 24.6°F-4.1°C 56% Calm Calm -- 26.90 in910.9 mb - 0.00 in0.0 mm 0.00 in0.0 mm
01:45 AM 38.0°F3.3°C 23.7°F-4.6°C 56% Calm Calm -- 26.90 in910.9 mb - 0.00 in0.0 mm 0.00 in0.0 mm
01:50 AM 38.0°F3.3°C 24.5°F-4.2°C 58% Calm Calm -- 26.90 in910.9 mb - 0.00 in0.0 mm 0.00 in0.0 mm
01:55 AM 38.0°F3.3°C 24.1°F-4.4°C 57% Calm Calm -- 26.89 in910.6 mb - 0.00 in0.0 mm 0.00 in0.0 mm
02:00 AM 38.0°F3.3°C 24.5°F-4.2°C 58% Calm Calm -- 26.89 in910.6 mb - 0.00 in0.0 mm 0.00 in0.0 mm
02:10 AM 37.0°F2.8°C 23.6°F-4.7°C 58% Calm Calm -- 26.89 in910.6 mb - 0.00 in0.0 mm 0.00 in0.0 mm
02:15 AM 37.0°F2.8°C 23.2°F-4.9°C 57% Calm Calm -- 26.89 in910.6 mb - 0.00 in0.0 mm 0.00 in0.0 mm
02:20 AM 38.0°F3.3°C 24.5°F-4.2°C 58% Calm Calm -- 26.89 in910.6 mb - 0.00 in0.0 mm 0.00 in0.0 mm
02:25 AM 38.0°F3.3°C 23.7°F-4.6°C 56% Calm Calm -- 26.90 in910.9 mb - 0.00 in0.0 mm 0.00 in0.0 mm
02:30 AM 38.0°F3.3°C 23.3°F-4.8°C 55% Calm Calm -- 26.90 in910.9 mb - 0.00 in0.0 mm 0.00 in0.0 mm
02:35 AM 39.0°F3.9°C 23.3°F-4.8°C 53% Calm Calm -- 26.90 in910.9 mb - 0.00 in0.0 mm 0.00 in0.0 mm
02:40 AM 38.0°F3.3°C 23.7°F-4.6°C 56% Calm Calm -- 26.90 in910.9 mb - 0.00 in0.0 mm 0.00 in0.0 mm
02:45 AM 37.2°F2.9°C 23.3°F-4.8°C 57% Calm Calm -- 26.90 in910.9 mb - 0.00 in0.0 mm 0.00 in0.0 mm
02:50 AM 37.0°F2.8°C 22.7°F-5.2°C 56% Calm Calm 1.2 mph1.9 kmh 26.90 in910.9 mb - 0.00 in0.0 mm 0.00 in0.0 mm
02:55 AM 38.0°F3.3°C 22.4°F-5.3°C 53% Calm Calm 1.2 mph1.9 kmh 26.89 in910.6 mb - 0.00 in0.0 mm 0.00 in0.0 mm
03:00 AM 38.0°F3.3°C 22.4°F-5.3°C 53% Calm Calm -- 26.90 in910.9 mb - 0.00 in0.0 mm 0.00 in0.0 mm
03:10 AM 37.0°F2.8°C 24.4°F-4.2°C 60% Calm Calm -- 26.88 in910.3 mb - 0.00 in0.0 mm 0.00 in0.0 mm
03:15 AM 37.0°F2.8°C 23.2°F-4.9°C 57% Calm Calm -- 26.88 in910.3 mb - 0.00 in0.0 mm 0.00 in0.0 mm
03:20 AM 37.0°F2.8°C 23.2°F-4.9°C 57% Calm Calm -- 26.89 in910.6 mb - 0.00 in0.0 mm 0.00 in0.0 mm
03:25 AM 37.0°F2.8°C 23.2°F-4.9°C 57% Calm Calm -- 26.89 in910.6 mb - 0.00 in0.0 mm 0.00 in0.0 mm
03:30 AM 37.0°F2.8°C 23.2°F-4.9°C 57% Calm Calm -- 26.89 in910.6 mb - 0.00 in0.0 mm 0.00 in0.0 mm
03:35 AM 37.0°F2.8°C 23.6°F-4.7°C 58% Calm Calm -- 26.89 in910.6 mb - 0.00 in0.0 mm 0.00 in0.0 mm
03:40 AM 37.0°F2.8°C 23.2°F-4.9°C 57% Calm Calm -- 26.89 in910.6 mb - 0.00 in0.0 mm 0.00 in0.0 mm
03:45 AM 36.0°F2.2°C 23.0°F-5.0°C 59% Calm Calm -- 26.89 in910.6 mb - 0.00 in0.0 mm 0.00 in0.0 mm
03:50 AM 36.0°F2.2°C 23.0°F-5.0°C 59% Calm Calm -- 26.89 in910.6 mb - 0.00 in0.0 mm 0.00 in0.0 mm
03:55 AM 36.0°F2.2°C 23.4°F-4.8°C 60% Calm Calm -- 26.89 in910.6 mb - 0.00 in0.0 mm 0.00 in0.0 mm
04:00 AM 36.0°F2.2°C 22.6°F-5.2°C 58% Calm Calm -- 26.89 in910.6 mb - 0.00 in0.0 mm 0.00 in0.0 mm
04:10 AM 37.0°F2.8°C 23.2°F-4.9°C 57% Calm Calm -- 26.89 in910.6 mb - 0.00 in0.0 mm 0.00 in0.0 mm
04:15 AM 37.0°F2.8°C 23.2°F-4.9°C 57% Calm Calm -- 26.88 in910.3 mb - 0.00 in0.0 mm 0.00 in0.0 mm
04:20 AM 38.0°F3.3°C 22.8°F-5.1°C 54% Calm Calm -- 26.88 in910.3 mb - 0.00 in0.0 mm 0.00 in0.0 mm
04:25 AM 38.0°F3.3°C 24.1°F-4.4°C 57% Calm Calm -- 26.88 in910.3 mb - 0.00 in0.0 mm 0.00 in0.0 mm
04:30 AM 38.0°F3.3°C 22.8°F-5.1°C 54% Calm Calm -- 26.89 in910.6 mb - 0.00 in0.0 mm 0.00 in0.0 mm
04:35 AM 37.0°F2.8°C 23.2°F-4.9°C 57% Calm Calm -- 26.88 in910.3 mb - 0.00 in0.0 mm 0.00 in0.0 mm
04:40 AM 37.0°F2.8°C 23.6°F-4.7°C 58% Calm Calm -- 26.88 in910.3 mb - 0.00 in0.0 mm 0.00 in0.0 mm
04:45 AM 37.0°F2.8°C 24.0°F-4.4°C 59% Calm Calm -- 26.88 in910.3 mb - 0.00 in0.0 mm 0.00 in0.0 mm
04:50 AM 37.0°F2.8°C 23.6°F-4.7°C 58% Calm Calm -- 26.88 in910.3 mb - 0.00 in0.0 mm 0.00 in0.0 mm
04:55 AM 37.0°F2.8°C 23.6°F-4.7°C 58% Calm Calm -- 26.88 in910.3 mb - 0.00 in0.0 mm 0.00 in0.0 mm
05:00 AM 37.0°F2.8°C 21.9°F-5.6°C 54% Calm Calm -- 26.88 in910.3 mb - 0.00 in0.0 mm 0.00 in0.0 mm
05:10 AM 38.0°F3.3°C 23.3°F-4.8°C 55% Calm Calm -- 26.87 in909.9 mb - 0.00 in0.0 mm 0.00 in0.0 mm
05:15 AM 37.1°F2.8°C 22.0°F-5.6°C 54% Calm Calm -- 26.88 in910.3 mb - 0.00 in0.0 mm 0.00 in0.0 mm
05:20 AM 37.2°F2.9°C 22.1°F-5.5°C 54% Calm Calm -- 26.88 in910.3 mb - 0.00 in0.0 mm 0.00 in0.0 mm
05:25 AM 38.0°F3.3°C 23.7°F-4.6°C 56% Calm Calm -- 26.88 in910.3 mb - 0.00 in0.0 mm 0.00 in0.0 mm
05:30 AM 38.0°F3.3°C 24.1°F-4.4°C 57% Calm Calm -- 26.88 in910.3 mb - 0.00 in0.0 mm 0.00 in0.0 mm
05:35 AM 37.0°F2.8°C 23.2°F-4.9°C 57% Calm Calm -- 26.88 in910.3 mb - 0.00 in0.0 mm 0.00 in0.0 mm
05:40 AM 37.0°F2.8°C 23.6°F-4.7°C 58% Calm Calm -- 26.88 in910.3 mb - 0.00 in0.0 mm 0.00 in0.0 mm
05:45 AM 38.0°F3.3°C 22.8°F-5.1°C 54% Calm Calm -- 26.88 in910.3 mb - 0.00 in0.0 mm 0.00 in0.0 mm
05:50 AM 38.0°F3.3°C 21.9°F-5.6°C 52% Calm Calm -- 26.88 in910.3 mb - 0.00 in0.0 mm 0.00 in0.0 mm
05:55 AM 38.0°F3.3°C 21.9°F-5.6°C 52% Calm Calm -- 26.88 in910.3 mb - 0.00 in0.0 mm 0.00 in0.0 mm
06:00 AM 38.0°F3.3°C 21.5°F-5.8°C 51% Calm Calm -- 26.88 in910.3 mb - 0.00 in0.0 mm 0.00 in0.0 mm
06:10 AM 37.0°F2.8°C 23.6°F-4.7°C 58% Calm Calm -- 26.88 in910.3 mb - 0.00 in0.0 mm 0.00 in0.0 mm
06:15 AM 37.0°F2.8°C 22.3°F-5.4°C 55% Calm Calm -- 26.87 in909.9 mb - 0.00 in0.0 mm 0.00 in0.0 mm
06:20 AM 38.0°F3.3°C 23.7°F-4.6°C 56% Calm Calm -- 26.88 in910.3 mb - 0.00 in0.0 mm 0.00 in0.0 mm
06:25 AM 37.0°F2.8°C 22.3°F-5.4°C 55% Calm Calm -- 26.89 in910.6 mb - 0.00 in0.0 mm 0.00 in0.0 mm
06:30 AM 36.7°F2.6°C 22.4°F-5.3°C 56% Calm Calm -- 26.89 in910.6 mb - 0.00 in0.0 mm 0.00 in0.0 mm
06:35 AM 36.0°F2.2°C 22.2°F-5.4°C 57% Calm Calm -- 26.88 in910.3 mb - 0.00 in0.0 mm 0.00 in0.0 mm
06:40 AM 36.0°F2.2°C 22.6°F-5.2°C 58% Calm Calm -- 26.88 in910.3 mb - 0.00 in0.0 mm 0.00 in0.0 mm
06:45 AM 36.0°F2.2°C 21.8°F-5.7°C 56% Calm Calm -- 26.88 in910.3 mb - 0.00 in0.0 mm 0.00 in0.0 mm
06:50 AM 36.0°F2.2°C 22.2°F-5.4°C 57% Calm Calm -- 26.88 in910.3 mb - 0.00 in0.0 mm 0.00 in0.0 mm
06:55 AM 36.0°F2.2°C 22.2°F-5.4°C 57% Calm Calm -- 26.88 in910.3 mb - 0.00 in0.0 mm 0.00 in0.0 mm
07:00 AM 36.0°F2.2°C 22.6°F-5.2°C 58% Calm Calm -- 26.89 in910.6 mb - 0.00 in0.0 mm 0.00 in0.0 mm
07:10 AM 36.0°F2.2°C 23.4°F-4.8°C 60% Calm Calm -- 26.88 in910.3 mb - 0.00 in0.0 mm 0.00 in0.0 mm
07:15 AM 37.0°F2.8°C 23.6°F-4.7°C 58% 1.2 mph NE1.9 kmh NE 1.2 mph1.9 kmh 26.88 in910.3 mb - 0.00 in0.0 mm 0.00 in0.0 mm
07:20 AM 38.0°F3.3°C 23.7°F-4.6°C 56% Calm Calm -- 26.89 in910.6 mb - 0.00 in0.0 mm 0.00 in0.0 mm
07:25 AM 37.0°F2.8°C 23.2°F-4.9°C 57% Calm Calm -- 26.88 in910.3 mb - 0.00 in0.0 mm 0.00 in0.0 mm
07:30 AM 37.0°F2.8°C 22.3°F-5.4°C 55% Calm Calm -- 26.89 in910.6 mb - 0.00 in0.0 mm 0.00 in0.0 mm
07:35 AM 37.0°F2.8°C 24.4°F-4.2°C 60% Calm Calm -- 26.89 in910.6 mb - 0.00 in0.0 mm 0.00 in0.0 mm
07:40 AM 36.7°F2.6°C 24.1°F-4.4°C 60% Calm Calm -- 26.89 in910.6 mb - 0.00 in0.0 mm 0.00 in0.0 mm
07:45 AM 36.0°F2.2°C 23.0°F-5.0°C 59% Calm Calm -- 26.88 in910.3 mb - 0.00 in0.0 mm 0.00 in0.0 mm
07:50 AM 36.0°F2.2°C 23.4°F-4.8°C 60% Calm Calm -- 26.88 in910.3 mb - 0.00 in0.0 mm 0.00 in0.0 mm
07:55 AM 37.0°F2.8°C 24.0°F-4.4°C 59% Calm Calm -- 26.88 in910.3 mb - 0.00 in0.0 mm 0.00 in0.0 mm
08:00 AM 37.0°F2.8°C 24.0°F-4.4°C 59% Calm Calm -- 26.88 in910.3 mb - 0.00 in0.0 mm 0.00 in0.0 mm
08:10 AM 38.9°F3.8°C 25.4°F-3.7°C 58% Calm Calm -- 26.87 in909.9 mb - 0.00 in0.0 mm 0.00 in0.0 mm
08:15 AM 39.0°F3.9°C 25.5°F-3.6°C 58% Calm Calm -- 26.87 in909.9 mb - 0.00 in0.0 mm 0.00 in0.0 mm
08:20 AM 39.0°F3.9°C 26.3°F-3.2°C 60% Calm Calm -- 26.87 in909.9 mb - 0.00 in0.0 mm 0.00 in0.0 mm
08:25 AM 39.0°F3.9°C 25.0°F-3.9°C 57% Calm Calm -- 26.87 in909.9 mb - 0.00 in0.0 mm 0.00 in0.0 mm
08:30 AM 39.0°F3.9°C 25.5°F-3.6°C 58% Calm Calm -- 26.87 in909.9 mb - 0.00 in0.0 mm 0.00 in0.0 mm
08:35 AM 40.0°F4.4°C 25.6°F-3.6°C 56% Calm Calm -- 26.87 in909.9 mb - 0.00 in0.0 mm 0.00 in0.0 mm
08:40 AM 41.0°F5.0°C 25.2°F-3.8°C 53% Calm Calm -- 26.87 in909.9 mb - 0.00 in0.0 mm 0.00 in0.0 mm
08:45 AM 42.5°F5.8°C 26.6°F-3.0°C 53% Calm Calm -- 26.86 in909.6 mb - 0.00 in0.0 mm 0.00 in0.0 mm
08:50 AM 43.0°F6.1°C 27.0°F-2.8°C 53% Calm Calm -- 26.86 in909.6 mb - 0.00 in0.0 mm 0.00 in0.0 mm
08:55 AM 43.0°F6.1°C 24.6°F-4.1°C 48% Calm Calm -- 26.86 in909.6 mb - 0.00 in0.0 mm 0.00 in0.0 mm
09:00 AM 45.0°F7.2°C 27.0°F-2.8°C 49% Calm Calm -- 26.86 in909.6 mb - 0.00 in0.0 mm 0.00 in0.0 mm
09:10 AM 47.0°F8.3°C 27.8°F-2.3°C 47% Calm Calm -- 26.85 in909.2 mb - 0.00 in0.0 mm 0.00 in0.0 mm
09:15 AM 48.0°F8.9°C 27.1°F-2.7°C 44% Calm Calm -- 26.85 in909.2 mb - 0.00 in0.0 mm 0.00 in0.0 mm
09:20 AM 48.0°F8.9°C 27.1°F-2.7°C 44% Calm Calm -- 26.85 in909.2 mb - 0.00 in0.0 mm 0.00 in0.0 mm
09:25 AM 48.0°F8.9°C 27.1°F-2.7°C 44% Calm Calm -- 26.85 in909.2 mb - 0.00 in0.0 mm 0.00 in0.0 mm
09:30 AM 49.0°F9.4°C 25.7°F-3.5°C 40% Calm Calm -- 26.84 in908.9 mb - 0.00 in0.0 mm 0.00 in0.0 mm
09:35 AM 50.0°F10.0°C 25.4°F-3.7°C 38% Calm Calm -- 26.85 in909.2 mb - 0.00 in0.0 mm 0.00 in0.0 mm
09:40 AM 51.0°F10.6°C 24.3°F-4.3°C 35% Calm Calm -- 26.84 in908.9 mb - 0.00 in0.0 mm 0.00 in0.0 mm
09:45 AM 52.0°F11.1°C 25.8°F-3.4°C 36% Calm Calm -- 26.84 in908.9 mb - 0.00 in0.0 mm 0.00 in0.0 mm
09:50 AM 53.0°F11.7°C 26.7°F-2.9°C 36% Calm Calm -- 26.84 in908.9 mb - 0.00 in0.0 mm 0.00 in0.0 mm
09:55 AM 53.5°F11.9°C 27.1°F-2.7°C 36% Calm Calm -- 26.84 in908.9 mb - 0.00 in0.0 mm 0.00 in0.0 mm
10:00 AM 54.0°F12.2°C 26.9°F-2.8°C 35% Calm Calm -- 26.83 in908.6 mb - 0.00 in0.0 mm 0.00 in0.0 mm
10:10 AM 55.0°F12.8°C 27.8°F-2.3°C 35% Calm Calm 1.2 mph1.9 kmh 26.83 in908.6 mb - 0.00 in0.0 mm 0.00 in0.0 mm
10:15 AM 56.0°F13.3°C 24.2°F-4.3°C 29% Calm Calm -- 26.83 in908.6 mb - 0.00 in0.0 mm 0.00 in0.0 mm
10:20 AM 57.0°F13.9°C 25.8°F-3.4°C 30% Calm Calm -- 26.83 in908.6 mb - 0.00 in0.0 mm 0.00 in0.0 mm
10:25 AM 56.0°F13.3°C 27.3°F-2.6°C 33% 1.2 mph NW1.9 kmh NW 2.3 mph3.7 kmh 26.82 in908.2 mb - 0.00 in0.0 mm 0.00 in0.0 mm
10:30 AM 56.4°F13.6°C 26.8°F-2.9°C 32% 1.2 mph W1.9 kmh W 3.5 mph5.6 kmh 26.82 in908.2 mb - 0.00 in0.0 mm 0.00 in0.0 mm
10:35 AM 57.0°F13.9°C 25.0°F-3.9°C 29% 3.5 mph WSW5.6 kmh WSW 3.5 mph5.6 kmh 26.81 in907.9 mb - 0.00 in0.0 mm 0.00 in0.0 mm
10:40 AM 56.0°F13.3°C 24.2°F-4.3°C 29% 2.3 mph W3.7 kmh W 2.3 mph3.7 kmh 26.82 in908.2 mb - 0.00 in0.0 mm 0.00 in0.0 mm
10:45 AM 57.0°F13.9°C 24.2°F-4.3°C 28% 1.2 mph WNW1.9 kmh WNW 1.2 mph1.9 kmh 26.82 in908.2 mb - 0.00 in0.0 mm 0.00 in0.0 mm
10:50 AM 58.0°F14.4°C 25.0°F-3.9°C 28% 2.3 mph WNW3.7 kmh WNW 2.3 mph3.7 kmh 26.82 in908.2 mb - 0.00 in0.0 mm 0.00 in0.0 mm
10:55 AM 59.0°F15.0°C 25.0°F-3.9°C 27% 2.3 mph WNW3.7 kmh WNW 2.3 mph3.7 kmh 26.81 in907.9 mb - 0.00 in0.0 mm 0.00 in0.0 mm
11:00 AM 61.8°F16.6°C 25.6°F-3.6°C 25% Calm Calm 2.3 mph3.7 kmh 26.81 in907.9 mb - 0.00 in0.0 mm 0.00 in0.0 mm
11:10 AM 66.0°F18.9°C 24.9°F-3.9°C 21% 1.2 mph NW1.9 kmh NW 2.3 mph3.7 kmh 26.81 in907.9 mb - 0.00 in0.0 mm 0.00 in0.0 mm
11:15 AM 64.0°F17.8°C 28.4°F-2.0°C 26% 3.5 mph SW5.6 kmh SW 3.5 mph5.6 kmh 26.81 in907.9 mb - 0.00 in0.0 mm 0.00 in0.0 mm
11:20 AM 62.0°F16.7°C 27.6°F-2.4°C 27% 2.3 mph WNW3.7 kmh WNW 2.3 mph3.7 kmh 26.80 in907.6 mb - 0.00 in0.0 mm 0.00 in0.0 mm
11:25 AM 62.0°F16.7°C 24.8°F-4.0°C 24% Calm Calm -- 26.80 in907.6 mb - 0.00 in0.0 mm 0.00 in0.0 mm
11:30 AM 64.0°F17.8°C 26.4°F-3.1°C 24% Calm Calm -- 26.80 in907.6 mb - 0.00 in0.0 mm 0.00 in0.0 mm
11:35 AM 63.2°F17.3°C 27.8°F-2.3°C 26% 1.2 mph SW1.9 kmh SW 3.5 mph5.6 kmh 26.80 in907.6 mb - 0.00 in0.0 mm 0.00 in0.0 mm
11:40 AM 63.0°F17.2°C 28.4°F-2.0°C 27% 2.3 mph SW3.7 kmh SW 3.5 mph5.6 kmh 26.80 in907.6 mb - 0.00 in0.0 mm 0.00 in0.0 mm
11:45 AM 62.0°F16.7°C 28.5°F-1.9°C 28% 1.2 mph NW1.9 kmh NW 1.2 mph1.9 kmh 26.80 in907.6 mb - 0.00 in0.0 mm 0.00 in0.0 mm
11:50 AM 63.0°F17.2°C 26.6°F-3.0°C 25% Calm Calm 1.2 mph1.9 kmh 26.79 in907.2 mb - 0.00 in0.0 mm 0.00 in0.0 mm
11:55 AM 63.0°F17.2°C 26.6°F-3.0°C 25% 3.5 mph SW5.6 kmh SW 3.5 mph5.6 kmh 26.78 in906.9 mb - 0.00 in0.0 mm 0.00 in0.0 mm
12:00 PM 62.0°F16.7°C 26.7°F-2.9°C 26% 3.5 mph SW5.6 kmh SW 3.5 mph5.6 kmh 26.78 in906.9 mb - 0.00 in0.0 mm 0.00 in0.0 mm
12:10 PM 63.1°F17.3°C 28.5°F-1.9°C 27% 4.6 mph SW7.4 kmh SW 6.9 mph11.1 kmh 26.78 in906.9 mb - 0.00 in0.0 mm 0.00 in0.0 mm
12:15 PM 64.0°F17.8°C 29.3°F-1.5°C 27% 4.6 mph SW7.4 kmh SW 6.9 mph11.1 kmh 26.78 in906.9 mb - 0.00 in0.0 mm 0.00 in0.0 mm
12:20 PM 64.0°F17.8°C 27.4°F-2.6°C 25% 3.5 mph W5.6 kmh W 3.5 mph5.6 kmh 26.78 in906.9 mb - 0.00 in0.0 mm 0.00 in0.0 mm
12:25 PM 64.0°F17.8°C 29.3°F-1.5°C 27% 5.8 mph SW9.3 kmh SW 8.1 mph13.0 kmh 26.78 in906.9 mb - 0.00 in0.0 mm 0.00 in0.0 mm
12:30 PM 63.0°F17.2°C 28.5°F-1.9°C 27% 5.8 mph SSW9.3 kmh SSW 6.9 mph11.1 kmh 26.78 in906.9 mb - 0.00 in0.0 mm 0.00 in0.0 mm
12:35 PM 63.0°F17.2°C 27.5°F-2.5°C 26% 4.6 mph WSW7.4 kmh WSW 5.8 mph9.3 kmh 26.77 in906.5 mb - 0.00 in0.0 mm 0.00 in0.0 mm
12:40 PM 63.0°F17.2°C 28.5°F-1.9°C 27% 3.5 mph SSW5.6 kmh SSW 3.5 mph5.6 kmh 26.77 in906.5 mb - 0.00 in0.0 mm 0.00 in0.0 mm
12:45 PM 63.0°F17.2°C 28.5°F-1.9°C 27% 3.5 mph SW5.6 kmh SW 5.8 mph9.3 kmh 26.77 in906.5 mb - 0.00 in0.0 mm 0.00 in0.0 mm
12:50 PM 63.0°F17.2°C 27.5°F-2.5°C 26% 4.6 mph SW7.4 kmh SW 5.8 mph9.3 kmh 26.77 in906.5 mb - 0.00 in0.0 mm 0.00 in0.0 mm
12:55 PM 64.0°F17.8°C 30.2°F-1.0°C 28% 3.5 mph WSW5.6 kmh WSW 3.5 mph5.6 kmh 26.77 in906.5 mb - 0.00 in0.0 mm 0.00 in0.0 mm
01:00 PM 64.0°F17.8°C 29.3°F-1.5°C 27% 4.6 mph SW7.4 kmh SW 5.8 mph9.3 kmh 26.77 in906.5 mb - 0.00 in0.0 mm 0.00 in0.0 mm
01:10 PM 64.0°F17.8°C 30.2°F-1.0°C 28% 3.5 mph SW5.6 kmh SW 3.5 mph5.6 kmh 26.76 in906.2 mb - 0.00 in0.0 mm 0.00 in0.0 mm
01:15 PM 64.9°F18.3°C 30.1°F-1.1°C 27% 3.5 mph WSW5.6 kmh WSW 3.5 mph5.6 kmh 26.76 in906.2 mb - 0.00 in0.0 mm 0.00 in0.0 mm
01:20 PM 65.1°F18.4°C 30.3°F-0.9°C 27% 3.5 mph SW5.6 kmh SW 3.5 mph5.6 kmh 26.76 in906.2 mb - 0.00 in0.0 mm 0.00 in0.0 mm
01:25 PM 66.0°F18.9°C 29.1°F-1.6°C 25% 3.5 mph SW5.6 kmh SW 3.5 mph5.6 kmh 26.76 in906.2 mb - 0.00 in0.0 mm 0.00 in0.0 mm
01:30 PM 66.0°F18.9°C 29.1°F-1.6°C 25% 2.3 mph WSW3.7 kmh WSW 3.5 mph5.6 kmh 26.76 in906.2 mb - 0.00 in0.0 mm 0.00 in0.0 mm
01:35 PM 66.0°F18.9°C 31.0°F-0.6°C 27% 1.2 mph WSW1.9 kmh WSW 3.5 mph5.6 kmh 26.76 in906.2 mb - 0.00 in0.0 mm 0.00 in0.0 mm
01:40 PM 67.0°F19.4°C 30.0°F-1.1°C 25% 3.5 mph SW5.6 kmh SW 5.8 mph9.3 kmh 26.76 in906.2 mb - 0.00 in0.0 mm 0.00 in0.0 mm
01:45 PM 66.0°F18.9°C 31.0°F-0.6°C 27% 1.2 mph SW1.9 kmh SW 3.5 mph5.6 kmh 26.75 in905.9 mb - 0.00 in0.0 mm 0.00 in0.0 mm
01:50 PM 66.6°F19.2°C 30.6°F-0.8°C 26% 3.5 mph SW5.6 kmh SW 5.8 mph9.3 kmh 26.75 in905.9 mb - 0.00 in0.0 mm 0.00 in0.0 mm
01:55 PM 67.0°F19.4°C 30.0°F-1.1°C 25% 4.6 mph SW7.4 kmh SW 5.8 mph9.3 kmh 26.75 in905.9 mb - 0.00 in0.0 mm 0.00 in0.0 mm
02:00 PM 66.0°F18.9°C 29.1°F-1.6°C 25% 2.3 mph SW3.7 kmh SW 3.5 mph5.6 kmh 26.75 in905.9 mb - 0.00 in0.0 mm 0.00 in0.0 mm
02:10 PM 68.0°F20.0°C 30.8°F-0.7°C 25% 3.5 mph WSW5.6 kmh WSW 3.5 mph5.6 kmh 26.74 in905.5 mb - 0.00 in0.0 mm 0.00 in0.0 mm
02:15 PM 68.0°F20.0°C 30.8°F-0.7°C 25% 2.3 mph SW3.7 kmh SW 3.5 mph5.6 kmh 26.74 in905.5 mb - 0.00 in0.0 mm 0.00 in0.0 mm
02:20 PM 68.0°F20.0°C 29.8°F-1.2°C 24% Calm Calm -- 26.74 in905.5 mb - 0.00 in0.0 mm 0.00 in0.0 mm
02:25 PM 68.0°F20.0°C 30.8°F-0.7°C 25% 1.2 mph NW1.9 kmh NW 2.3 mph3.7 kmh 26.74 in905.5 mb - 0.00 in0.0 mm 0.00 in0.0 mm
02:30 PM 67.0°F19.4°C 31.0°F-0.6°C 26% 2.3 mph W3.7 kmh W 2.3 mph3.7 kmh 26.73 in905.2 mb - 0.00 in0.0 mm 0.00 in0.0 mm
02:35 PM 68.0°F20.0°C 30.8°F-0.7°C 25% 3.5 mph SW5.6 kmh SW 3.5 mph5.6 kmh 26.74 in905.5 mb - 0.00 in0.0 mm 0.00 in0.0 mm
02:40 PM 68.0°F20.0°C 28.8°F-1.8°C 23% 3.5 mph S5.6 kmh S 5.8 mph9.3 kmh 26.74 in905.5 mb - 0.00 in0.0 mm 0.00 in0.0 mm
02:45 PM 68.0°F20.0°C 30.8°F-0.7°C 25% 3.5 mph SW5.6 kmh SW 3.5 mph5.6 kmh 26.73 in905.2 mb - 0.00 in0.0 mm 0.00 in0.0 mm
02:50 PM 68.0°F20.0°C 28.8°F-1.8°C 23% 3.5 mph SSW5.6 kmh SSW 5.8 mph9.3 kmh 26.73 in905.2 mb - 0.00 in0.0 mm 0.00 in0.0 mm
02:55 PM 68.0°F20.0°C 29.8°F-1.2°C 24% 1.2 mph NW1.9 kmh NW 5.8 mph9.3 kmh 26.73 in905.2 mb - 0.00 in0.0 mm 0.00 in0.0 mm
03:00 PM 67.2°F19.6°C 29.1°F-1.6°C 24% 1.2 mph NW1.9 kmh NW 3.5 mph5.6 kmh 26.73 in905.2 mb - 0.00 in0.0 mm 0.00 in0.0 mm
03:10 PM 69.0°F20.6°C 27.4°F-2.6°C 21% 3.5 mph S5.6 kmh S 3.5 mph5.6 kmh 26.73 in905.2 mb - 0.00 in0.0 mm 0.00 in0.0 mm
03:15 PM 68.0°F20.0°C 30.8°F-0.7°C 25% 3.5 mph SW5.6 kmh SW 3.5 mph5.6 kmh 26.72 in904.8 mb - 0.00 in0.0 mm 0.00 in0.0 mm
03:20 PM 68.0°F20.0°C 28.8°F-1.8°C 23% 3.5 mph SW5.6 kmh SW 3.5 mph5.6 kmh 26.72 in904.8 mb - 0.00 in0.0 mm 0.00 in0.0 mm
03:25 PM 67.0°F19.4°C 29.0°F-1.7°C 24% 1.2 mph NNW1.9 kmh NNW 1.2 mph1.9 kmh 26.72 in904.8 mb - 0.00 in0.0 mm 0.00 in0.0 mm
03:30 PM 67.7°F19.8°C 30.6°F-0.8°C 25% 3.5 mph SW5.6 kmh SW 3.5 mph5.6 kmh 26.72 in904.8 mb - 0.00 in0.0 mm 0.00 in0.0 mm
03:35 PM 68.0°F20.0°C 30.8°F-0.7°C 25% 3.5 mph SW5.6 kmh SW 3.5 mph5.6 kmh 26.72 in904.8 mb - 0.00 in0.0 mm 0.00 in0.0 mm
03:40 PM 68.0°F20.0°C 28.8°F-1.8°C 23% 2.3 mph S3.7 kmh S 3.5 mph5.6 kmh 26.72 in904.8 mb - 0.00 in0.0 mm 0.00 in0.0 mm
03:45 PM 69.0°F20.6°C 28.5°F-1.9°C 22% 3.5 mph SW5.6 kmh SW 3.5 mph5.6 kmh 26.72 in904.8 mb - 0.00 in0.0 mm 0.00 in0.0 mm
03:50 PM 68.0°F20.0°C 28.8°F-1.8°C 23% 3.5 mph S5.6 kmh S 3.5 mph5.6 kmh 26.72 in904.8 mb - 0.00 in0.0 mm 0.00 in0.0 mm
03:55 PM 69.0°F20.6°C 27.4°F-2.6°C 21% 2.3 mph N3.7 kmh N 3.5 mph5.6 kmh 26.73 in905.2 mb - 0.00 in0.0 mm 0.00 in0.0 mm
04:00 PM 69.0°F20.6°C 28.5°F-1.9°C 22% 2.3 mph WSW3.7 kmh WSW 2.3 mph3.7 kmh 26.73 in905.2 mb - 0.00 in0.0 mm 0.00 in0.0 mm
04:10 PM 68.0°F20.0°C 27.7°F-2.4°C 22% 1.2 mph NW1.9 kmh NW 2.3 mph3.7 kmh 26.72 in904.8 mb - 0.00 in0.0 mm 0.00 in0.0 mm
04:15 PM 70.0°F21.1°C 30.5°F-0.8°C 23% 1.2 mph WNW1.9 kmh WNW 2.3 mph3.7 kmh 26.72 in904.8 mb - 0.00 in0.0 mm 0.00 in0.0 mm
04:20 PM 72.0°F22.2°C 32.1°F0.1°C 23% Calm Calm -- 26.72 in904.8 mb - 0.00 in0.0 mm 0.00 in0.0 mm
04:25 PM 73.0°F22.8°C 31.9°F-0.1°C 22% Calm Calm -- 26.72 in904.8 mb - 0.00 in0.0 mm 0.00 in0.0 mm
04:30 PM 73.0°F22.8°C 31.9°F-0.1°C 22% Calm Calm -- 26.72 in904.8 mb - 0.00 in0.0 mm 0.00 in0.0 mm
04:35 PM 73.0°F22.8°C 31.9°F-0.1°C 22% Calm Calm -- 26.72 in904.8 mb - 0.00 in0.0 mm 0.00 in0.0 mm
04:40 PM 73.0°F22.8°C 31.9°F-0.1°C 22% Calm Calm -- 26.72 in904.8 mb - 0.00 in0.0 mm 0.00 in0.0 mm
04:45 PM 72.0°F22.2°C 31.0°F-0.6°C 22% Calm Calm -- 26.73 in905.2 mb - 0.00 in0.0 mm 0.00 in0.0 mm
04:50 PM 73.0°F22.8°C 30.7°F-0.7°C 21% Calm Calm -- 26.73 in905.2 mb - 0.00 in0.0 mm 0.00 in0.0 mm
04:55 PM 69.0°F20.6°C 31.7°F-0.2°C 25% Calm Calm -- 26.72 in904.8 mb - 0.00 in0.0 mm 0.00 in0.0 mm
05:00 PM 65.0°F18.3°C 30.2°F-1.0°C 27% Calm Calm -- 26.72 in904.8 mb - 0.00 in0.0 mm 0.00 in0.0 mm
05:10 PM 61.0°F16.1°C 28.5°F-1.9°C 29% Calm Calm -- 26.73 in905.2 mb - 0.00 in0.0 mm 0.00 in0.0 mm
05:15 PM 60.8°F16.0°C 29.2°F-1.6°C 30% Calm Calm -- 26.73 in905.2 mb - 0.00 in0.0 mm 0.00 in0.0 mm
05:20 PM 60.0°F15.6°C 32.2°F0.1°C 35% Calm Calm -- 26.74 in905.5 mb - 0.00 in0.0 mm 0.00 in0.0 mm
05:25 PM 59.0°F15.0°C 30.6°F-0.8°C 34% Calm Calm -- 26.74 in905.5 mb - 0.00 in0.0 mm 0.00 in0.0 mm
05:30 PM 59.0°F15.0°C 30.6°F-0.8°C 34% Calm Calm -- 26.74 in905.5 mb - 0.00 in0.0 mm 0.00 in0.0 mm
05:35 PM 56.0°F13.3°C 32.6°F0.3°C 41% Calm Calm -- 26.74 in905.5 mb - 0.00 in0.0 mm 0.00 in0.0 mm
05:40 PM 56.0°F13.3°C 33.8°F1.0°C 43% Calm Calm -- 26.75 in905.9 mb - 0.00 in0.0 mm 0.00 in0.0 mm
05:45 PM 55.3°F12.9°C 30.7°F-0.7°C 39% Calm Calm -- 26.75 in905.9 mb - 0.00 in0.0 mm 0.00 in0.0 mm
05:50 PM 55.0°F12.8°C 29.8°F-1.2°C 38% Calm Calm 1.2 mph1.9 kmh 26.75 in905.9 mb - 0.00 in0.0 mm 0.00 in0.0 mm
05:55 PM 55.0°F12.8°C 30.5°F-0.8°C 39% 1.2 mph N1.9 kmh N 1.2 mph1.9 kmh 26.75 in905.9 mb - 0.00 in0.0 mm 0.00 in0.0 mm
06:00 PM 54.0°F12.2°C 31.4°F-0.3°C 42% Calm Calm -- 26.75 in905.9 mb - 0.00 in0.0 mm 0.00 in0.0 mm
06:10 PM 54.0°F12.2°C 33.7°F0.9°C 46% Calm Calm -- 26.76 in906.2 mb - 0.00 in0.0 mm 0.00 in0.0 mm
06:15 PM 53.0°F11.7°C 32.2°F0.1°C 45% Calm Calm -- 26.77 in906.5 mb - 0.00 in0.0 mm 0.00 in0.0 mm
06:20 PM 53.0°F11.7°C 32.2°F0.1°C 45% Calm Calm -- 26.77 in906.5 mb - 0.00 in0.0 mm 0.00 in0.0 mm
06:25 PM 53.0°F11.7°C 32.2°F0.1°C 45% Calm Calm -- 26.77 in906.5 mb - 0.00 in0.0 mm 0.00 in0.0 mm
06:30 PM 51.0°F10.6°C 32.0°F0.0°C 48% Calm Calm -- 26.77 in906.5 mb - 0.00 in0.0 mm 0.00 in0.0 mm
06:35 PM 52.0°F11.1°C 33.4°F0.8°C 49% Calm Calm -- 26.77 in906.5 mb - 0.00 in0.0 mm 0.00 in0.0 mm
06:40 PM 51.0°F10.6°C 31.5°F-0.3°C 47% Calm Calm -- 26.78 in906.9 mb - 0.00 in0.0 mm 0.00 in0.0 mm
06:45 PM 50.0°F10.0°C 31.1°F-0.5°C 48% Calm Calm -- 26.77 in906.5 mb - 0.00 in0.0 mm 0.00 in0.0 mm
06:50 PM 50.0°F10.0°C 32.6°F0.3°C 51% Calm Calm -- 26.79 in907.2 mb - 0.00 in0.0 mm 0.00 in0.0 mm
06:55 PM 49.5°F9.7°C 32.1°F0.1°C 51% Calm Calm -- 26.79 in907.2 mb - 0.00 in0.0 mm 0.00 in0.0 mm
07:00 PM 49.0°F9.4°C 32.1°F0.1°C 52% Calm Calm -- 26.78 in906.9 mb - 0.00 in0.0 mm 0.00 in0.0 mm
07:10 PM 49.0°F9.4°C 32.6°F0.3°C 53% Calm Calm -- 26.79 in907.2 mb - 0.00 in0.0 mm 0.00 in0.0 mm
07:15 PM 48.0°F8.9°C 30.7°F-0.7°C 51% Calm Calm -- 26.80 in907.6 mb - 0.00 in0.0 mm 0.00 in0.0 mm
07:20 PM 48.0°F8.9°C 32.1°F0.1°C 54% Calm Calm -- 26.80 in907.6 mb - 0.00 in0.0 mm 0.00 in0.0 mm
07:25 PM 48.0°F8.9°C 32.1°F0.1°C 54% Calm Calm -- 26.80 in907.6 mb - 0.00 in0.0 mm 0.00 in0.0 mm
07:30 PM 48.0°F8.9°C 31.2°F-0.4°C 52% Calm Calm -- 26.80 in907.6 mb - 0.00 in0.0 mm 0.00 in0.0 mm
07:35 PM 48.0°F8.9°C 30.7°F-0.7°C 51% Calm Calm -- 26.80 in907.6 mb - 0.00 in0.0 mm 0.00 in0.0 mm
07:40 PM 48.0°F8.9°C 31.2°F-0.4°C 52% Calm Calm -- 26.80 in907.6 mb - 0.00 in0.0 mm 0.00 in0.0 mm
07:45 PM 47.0°F8.3°C 29.8°F-1.2°C 51% Calm Calm -- 26.80 in907.6 mb - 0.00 in0.0 mm 0.00 in0.0 mm
07:50 PM 48.0°F8.9°C 29.7°F-1.3°C 49% Calm Calm -- 26.80 in907.6 mb - 0.00 in0.0 mm 0.00 in0.0 mm
07:55 PM 48.0°F8.9°C 30.2°F-1.0°C 50% Calm Calm -- 26.81 in907.9 mb - 0.00 in0.0 mm 0.00 in0.0 mm
08:00 PM 48.0°F8.9°C 28.7°F-1.8°C 47% Calm Calm -- 26.81 in907.9 mb - 0.00 in0.0 mm 0.00 in0.0 mm
08:10 PM 48.0°F8.9°C 29.7°F-1.3°C 49% Calm Calm -- 26.81 in907.9 mb - 0.00 in0.0 mm 0.00 in0.0 mm
08:15 PM 48.0°F8.9°C 30.2°F-1.0°C 50% Calm Calm -- 26.82 in908.2 mb - 0.00 in0.0 mm 0.00 in0.0 mm
08:20 PM 47.0°F8.3°C 30.3°F-0.9°C 52% Calm Calm -- 26.82 in908.2 mb - 0.00 in0.0 mm 0.00 in0.0 mm
08:25 PM 47.0°F8.3°C 29.3°F-1.5°C 50% Calm Calm -- 26.82 in908.2 mb - 0.00 in0.0 mm 0.00 in0.0 mm
08:30 PM 48.0°F8.9°C 28.7°F-1.8°C 47% Calm Calm -- 26.82 in908.2 mb - 0.00 in0.0 mm 0.00 in0.0 mm
08:35 PM 48.0°F8.9°C 30.7°F-0.7°C 51% Calm Calm -- 26.82 in908.2 mb - 0.00 in0.0 mm 0.00 in0.0 mm
08:40 PM 47.0°F8.3°C 30.7°F-0.7°C 53% Calm Calm -- 26.83 in908.6 mb - 0.00 in0.0 mm 0.00 in0.0 mm
08:45 PM 46.3°F7.9°C 30.6°F-0.8°C 54% Calm Calm -- 26.83 in908.6 mb - 0.00 in0.0 mm 0.00 in0.0 mm
08:50 PM 46.0°F7.8°C 30.3°F-0.9°C 54% Calm Calm -- 26.83 in908.6 mb - 0.00 in0.0 mm 0.00 in0.0 mm
08:55 PM 45.0°F7.2°C 29.3°F-1.5°C 54% Calm Calm -- 26.83 in908.6 mb - 0.00 in0.0 mm 0.00 in0.0 mm
09:00 PM 45.0°F7.2°C 28.9°F-1.7°C 53% Calm Calm -- 26.83 in908.6 mb - 0.00 in0.0 mm 0.00 in0.0 mm
09:10 PM 45.0°F7.2°C 29.8°F-1.2°C 55% Calm Calm -- 26.83 in908.6 mb - 0.00 in0.0 mm 0.00 in0.0 mm
09:15 PM 46.0°F7.8°C 30.3°F-0.9°C 54% Calm Calm -- 26.83 in908.6 mb - 0.00 in0.0 mm 0.00 in0.0 mm
09:20 PM 45.0°F7.2°C 29.3°F-1.5°C 54% Calm Calm -- 26.84 in908.9 mb - 0.00 in0.0 mm 0.00 in0.0 mm
09:25 PM 45.0°F7.2°C 29.3°F-1.5°C 54% Calm Calm -- 26.84 in908.9 mb - 0.00 in0.0 mm 0.00 in0.0 mm
09:30 PM 45.0°F7.2°C 29.3°F-1.5°C 54% Calm Calm -- 26.84 in908.9 mb - 0.00 in0.0 mm 0.00 in0.0 mm
09:35 PM 45.0°F7.2°C 30.2°F-1.0°C 56% Calm Calm -- 26.84 in908.9 mb - 0.00 in0.0 mm 0.00 in0.0 mm
09:40 PM 46.0°F7.8°C 28.9°F-1.7°C 51% Calm Calm -- 26.84 in908.9 mb - 0.00 in0.0 mm 0.00 in0.0 mm
09:45 PM 46.0°F7.8°C 29.3°F-1.5°C 52% Calm Calm -- 26.84 in908.9 mb - 0.00 in0.0 mm 0.00 in0.0 mm
09:50 PM 46.0°F7.8°C 30.7°F-0.7°C 55% Calm Calm -- 26.84 in908.9 mb - 0.00 in0.0 mm 0.00 in0.0 mm
09:55 PM 45.0°F7.2°C 28.9°F-1.7°C 53% Calm Calm -- 26.84 in908.9 mb - 0.00 in0.0 mm 0.00 in0.0 mm
10:00 PM 45.0°F7.2°C 28.4°F-2.0°C 52% Calm Calm -- 26.84 in908.9 mb - 0.00 in0.0 mm 0.00 in0.0 mm
10:10 PM 46.0°F7.8°C 28.4°F-2.0°C 50% Calm Calm -- 26.84 in908.9 mb - 0.00 in0.0 mm 0.00 in0.0 mm
10:15 PM 45.0°F7.2°C 29.8°F-1.2°C 55% Calm Calm -- 26.84 in908.9 mb - 0.00 in0.0 mm 0.00 in0.0 mm
10:20 PM 44.0°F6.7°C 28.4°F-2.0°C 54% Calm Calm -- 26.84 in908.9 mb - 0.00 in0.0 mm 0.00 in0.0 mm
10:25 PM 45.0°F7.2°C 28.4°F-2.0°C 52% Calm Calm -- 26.84 in908.9 mb - 0.00 in0.0 mm 0.00 in0.0 mm
10:30 PM 44.0°F6.7°C 28.0°F-2.2°C 53% Calm Calm -- 26.83 in908.6 mb - 0.00 in0.0 mm 0.00 in0.0 mm
10:35 PM 45.0°F7.2°C 27.9°F-2.3°C 51% Calm Calm -- 26.85 in909.2 mb - 0.00 in0.0 mm 0.00 in0.0 mm
10:40 PM 45.0°F7.2°C 27.9°F-2.3°C 51% Calm Calm 1.2 mph1.9 kmh 26.85 in909.2 mb - 0.00 in0.0 mm 0.00 in0.0 mm
10:45 PM 45.0°F7.2°C 27.5°F-2.5°C 50% Calm Calm 1.2 mph1.9 kmh 26.84 in908.9 mb - 0.00 in0.0 mm 0.00 in0.0 mm
10:50 PM 45.0°F7.2°C 28.4°F-2.0°C 52% Calm Calm -- 26.84 in908.9 mb - 0.00 in0.0 mm 0.00 in0.0 mm
10:55 PM 45.0°F7.2°C 29.8°F-1.2°C 55% Calm Calm -- 26.84 in908.9 mb - 0.00 in0.0 mm 0.00 in0.0 mm
11:00 PM 44.0°F6.7°C 28.4°F-2.0°C 54% Calm Calm -- 26.84 in908.9 mb - 0.00 in0.0 mm 0.00 in0.0 mm
11:10 PM 44.0°F6.7°C 28.4°F-2.0°C 54% Calm Calm -- 26.84 in908.9 mb - 0.00 in0.0 mm 0.00 in0.0 mm
11:15 PM 44.0°F6.7°C 28.0°F-2.2°C 53% Calm Calm -- 26.83 in908.6 mb - 0.00 in0.0 mm 0.00 in0.0 mm
11:20 PM 44.0°F6.7°C 27.5°F-2.5°C 52% Calm Calm -- 26.83 in908.6 mb - 0.00 in0.0 mm 0.00 in0.0 mm
11:25 PM 45.0°F7.2°C 28.9°F-1.7°C 53% Calm Calm -- 26.84 in908.9 mb - 0.00 in0.0 mm 0.00 in0.0 mm
11:30 PM 44.0°F6.7°C 29.7°F-1.3°C 57% Calm Calm -- 26.84 in908.9 mb - 0.00 in0.0 mm 0.00 in0.0 mm
11:35 PM 43.0°F6.1°C 27.9°F-2.3°C 55% Calm Calm -- 26.84 in908.9 mb - 0.00 in0.0 mm 0.00 in0.0 mm
11:40 PM 43.0°F6.1°C 28.8°F-1.8°C 57% Calm Calm -- 26.84 in908.9 mb - 0.00 in0.0 mm 0.00 in0.0 mm
11:45 PM 44.0°F6.7°C 28.0°F-2.2°C 53% Calm Calm -- 26.84 in908.9 mb - 0.00 in0.0 mm 0.00 in0.0 mm
11:50 PM 43.1°F6.2°C 28.0°F-2.2°C 55% Calm Calm -- 26.84 in908.9 mb - 0.00 in0.0 mm 0.00 in0.0 mm
11:55 PM 43.0°F6.1°C 27.9°F-2.3°C 55% Calm Calm -- 26.84 in908.9 mb - 0.00 in0.0 mm 0.00 in0.0 mm